Terminal Aerodrome Forecast
Issued by NWS Flagstaff, AZ

Home | Current Version | Previous Version | Text Only | Print | Product List | Glossary On
Versions: 1 2 3 4 5 6 7 8 9 10 11 12
389
FTUS45 KFGZ 181124
TAFINW
TAF
KINW 181124Z 1812/1912 VRB05KT P6SM SCT250
     FM190130 25006KT P6SM FEW120 BKN250=

USA.gov is the U.S. government's official web portal to all federal, state and local government web resources and services.